createdAt,value
2018-07-24T00:00:14.667Z,87.38
2018-07-24T00:03:18.909Z,87.49
2018-07-24T00:06:23.204Z,87.38
2018-07-24T00:09:27.422Z,87.66
2018-07-24T00:12:31.624Z,87.61
2018-07-24T00:15:35.935Z,88.29
2018-07-24T00:18:40.164Z,88.01
2018-07-24T00:21:44.376Z,88.02
2018-07-24T00:24:48.610Z,88.55
2018-07-24T00:27:52.815Z,89.17
2018-07-24T00:30:56.825Z,89.07
2018-07-24T00:34:01.037Z,89.30
2018-07-24T00:37:05.416Z,89.07
2018-07-24T00:40:09.616Z,89.08
2018-07-24T00:43:13.904Z,89.98
2018-07-24T00:46:18.128Z,89.80
2018-07-24T00:49:22.368Z,89.98
2018-07-24T00:52:26.596Z,90.11
2018-07-24T00:55:30.810Z,89.35
2018-07-24T00:58:35.153Z,89.01
2018-07-24T01:01:39.384Z,89.53
2018-07-24T01:04:43.611Z,88.67
2018-07-24T01:07:47.821Z,88.67
2018-07-24T01:10:52.024Z,88.75
2018-07-24T01:13:56.260Z,89.63
2018-07-24T01:17:00.472Z,90.23
2018-07-24T01:20:05.376Z,90.43
2018-07-24T01:23:09.583Z,89.84
2018-07-24T01:26:13.924Z,90.36
2018-07-24T01:29:18.135Z,90.38
2018-07-24T01:32:22.369Z,89.72
2018-07-24T01:35:26.625Z,89.28
2018-07-24T01:38:30.826Z,89.32
2018-07-24T01:41:35.048Z,89.59
2018-07-24T01:44:39.269Z,89.89
2018-07-24T01:47:43.524Z,90.20
2018-07-24T01:50:47.726Z,89.49
2018-07-24T01:53:51.949Z,89.45
2018-07-24T01:56:56.152Z,89.80
2018-07-24T02:00:00.385Z,89.86
2018-07-24T02:03:04.608Z,89.59
2018-07-24T02:06:08.828Z,89.71
2018-07-24T02:09:13.045Z,90.59
2018-07-24T02:12:17.285Z,90.83
2018-07-24T02:15:21.445Z,90.87
2018-07-24T02:18:25.661Z,90.37
2018-07-24T02:21:29.928Z,90.27
2018-07-24T02:24:34.169Z,90.65
2018-07-24T02:27:38.382Z,91.36
2018-07-24T02:30:42.633Z,91.84
2018-07-24T02:33:46.861Z,91.48
2018-07-24T02:36:51.108Z,92.17
2018-07-24T02:39:55.349Z,92.44
2018-07-24T02:42:59.570Z,93.00
2018-07-24T02:46:03.828Z,93.43
2018-07-24T02:49:08.063Z,93.31
2018-07-24T02:52:12.260Z,93.76
2018-07-24T02:55:16.472Z,94.95
2018-07-24T02:58:20.684Z,93.92
2018-07-24T03:01:24.898Z,94.23
2018-07-24T03:04:29.109Z,95.17
2018-07-24T03:07:33.362Z,94.82
2018-07-24T03:10:37.581Z,94.83
2018-07-24T03:13:41.581Z,95.14
2018-07-24T03:16:45.789Z,94.50
2018-07-24T03:19:50.056Z,94.58
2018-07-24T03:22:54.266Z,94.97
2018-07-24T03:25:58.493Z,94.36
2018-07-24T03:29:02.733Z,94.76
2018-07-24T03:32:07.012Z,94.29
2018-07-24T03:35:11.242Z,93.94
2018-07-24T03:38:15.469Z,93.85
2018-07-24T03:41:19.713Z,94.26
2018-07-24T03:44:23.913Z,93.62
2018-07-24T03:47:28.191Z,94.41
2018-07-24T03:50:32.405Z,93.98
2018-07-24T03:53:36.618Z,94.54
2018-07-24T03:56:40.832Z,94.13
2018-07-24T03:59:45.081Z,93.73
2018-07-24T04:02:49.283Z,93.30
2018-07-24T04:05:53.665Z,94.08
2018-07-24T04:08:57.873Z,93.21
2018-07-24T04:12:02.099Z,93.80
2018-07-24T04:15:06.446Z,93.51
2018-07-24T04:18:10.665Z,93.15
2018-07-24T04:21:15.753Z,93.56
2018-07-24T04:24:19.973Z,93.14
2018-07-24T04:27:24.204Z,93.13
2018-07-24T04:30:28.407Z,92.93
2018-07-24T04:33:32.628Z,93.79
2018-07-24T04:36:36.841Z,93.26
2018-07-24T04:39:41.060Z,93.44
2018-07-24T04:42:45.308Z,93.03
2018-07-24T04:45:49.499Z,93.53
2018-07-24T04:48:53.736Z,92.52
2018-07-24T04:51:57.952Z,93.23
2018-07-24T04:55:02.164Z,92.49
2018-07-24T04:58:06.513Z,92.82
2018-07-24T05:01:10.705Z,92.51
2018-07-24T05:04:14.954Z,92.65
2018-07-24T05:07:19.148Z,92.89
2018-07-24T05:10:23.604Z,93.12
2018-07-24T05:13:27.786Z,93.26
2018-07-24T05:16:32.028Z,93.40
2018-07-24T05:19:36.250Z,92.66
2018-07-24T05:22:40.473Z,93.17
2018-07-24T05:25:44.735Z,92.80
2018-07-24T05:28:49.076Z,92.63
2018-07-24T05:31:53.292Z,93.22
2018-07-24T05:34:57.525Z,93.39
2018-07-24T05:38:01.746Z,93.50
2018-07-24T05:41:05.948Z,93.01
2018-07-24T05:44:10.245Z,93.18
2018-07-24T05:47:14.452Z,94.20
2018-07-24T05:50:19.453Z,94.50
2018-07-24T05:53:23.678Z,94.46
2018-07-24T05:56:27.968Z,94.08
2018-07-24T05:59:32.176Z,94.42
2018-07-24T06:02:36.380Z,93.71
2018-07-24T06:05:40.655Z,92.99
2018-07-24T06:08:44.870Z,93.39
2018-07-24T06:11:49.081Z,93.37
2018-07-24T06:14:53.313Z,93.37
2018-07-24T06:17:57.563Z,92.96
2018-07-24T06:21:01.811Z,91.70
2018-07-24T06:24:06.046Z,91.92
2018-07-24T06:27:10.394Z,91.49
2018-07-24T06:30:14.621Z,90.45
2018-07-24T06:33:18.847Z,90.81
2018-07-24T06:36:23.116Z,90.91
2018-07-24T06:39:27.346Z,90.96
2018-07-24T06:42:31.633Z,90.22
2018-07-24T06:45:35.909Z,90.32
2018-07-24T06:48:40.154Z,90.85
2018-07-24T06:51:44.488Z,91.06
2018-07-24T06:54:48.642Z,89.96
2018-07-24T06:57:52.845Z,89.24
2018-07-24T07:00:57.119Z,88.47
2018-07-24T07:04:01.330Z,87.96
2018-07-24T07:07:05.745Z,87.45
2018-07-24T07:10:10.330Z,85.29
2018-07-24T07:13:14.554Z,85.21
2018-07-24T07:16:18.786Z,83.41
2018-07-24T07:19:23.006Z,83.72
2018-07-24T07:22:27.229Z,81.63
2018-07-24T07:25:31.446Z,81.42
2018-07-24T07:28:35.654Z,81.67
2018-07-24T07:31:39.904Z,82.06
2018-07-24T07:34:44.089Z,78.14
2018-07-24T07:37:48.332Z,76.70
2018-07-24T07:40:52.525Z,73.44
2018-07-24T07:43:56.775Z,72.45
2018-07-24T07:47:00.991Z,72.64
2018-07-24T07:50:05.229Z,72.69
2018-07-24T07:53:09.437Z,72.37
2018-07-24T07:56:13.674Z,73.18
2018-07-24T07:59:17.880Z,70.92
2018-07-24T08:02:22.173Z,70.38
2018-07-24T08:05:26.357Z,70.52
2018-07-24T08:08:30.577Z,69.70
2018-07-24T08:11:34.825Z,68.77
2018-07-24T08:14:39.060Z,68.30
2018-07-24T08:17:43.301Z,66.90
2018-07-24T08:20:47.553Z,66.24
2018-07-24T08:23:51.725Z,65.30
2018-07-24T08:26:55.937Z,63.56
2018-07-24T08:30:00.147Z,65.67
2018-07-24T08:33:04.381Z,64.48
2018-07-24T08:36:08.576Z,62.61
2018-07-24T08:39:13.436Z,61.40
2018-07-24T08:42:17.680Z,60.13
2018-07-24T08:45:21.913Z,61.22
2018-07-24T08:48:26.181Z,60.36
2018-07-24T08:51:30.384Z,59.63
2018-07-24T08:54:34.720Z,59.45
2018-07-24T08:57:38.890Z,58.46
2018-07-24T09:00:43.110Z,58.19
2018-07-24T09:03:47.356Z,58.39
2018-07-24T09:06:51.581Z,58.33
2018-07-24T09:09:55.785Z,58.02
2018-07-24T09:12:59.985Z,58.28
2018-07-24T09:16:04.186Z,59.44
2018-07-24T09:19:08.894Z,57.85
2018-07-24T09:22:13.113Z,56.40
2018-07-24T09:25:17.345Z,56.37
2018-07-24T09:28:21.585Z,55.82
2018-07-24T09:31:25.784Z,55.28
2018-07-24T09:34:30.019Z,56.04
2018-07-24T09:37:34.241Z,54.93
2018-07-24T09:40:38.465Z,54.39
2018-07-24T09:43:42.863Z,54.97
2018-07-24T09:46:47.134Z,54.95
2018-07-24T09:49:51.343Z,53.76
2018-07-24T09:52:55.600Z,54.08
2018-07-24T09:55:59.828Z,54.13
2018-07-24T09:59:04.064Z,53.99
2018-07-24T10:02:08.257Z,52.88
2018-07-24T10:05:12.505Z,52.99
2018-07-24T10:08:16.760Z,52.71
2018-07-24T10:11:21.089Z,52.13
2018-07-24T10:14:25.351Z,52.36
2018-07-24T10:17:29.581Z,52.41
2018-07-24T10:20:33.804Z,52.66
2018-07-24T10:23:38.026Z,52.61
2018-07-24T10:26:42.283Z,51.82
2018-07-24T10:29:46.545Z,51.47
2018-07-24T10:32:50.789Z,50.56
2018-07-24T10:35:54.834Z,50.28
2018-07-24T10:38:59.077Z,51.33
2018-07-24T10:42:03.324Z,49.48
2018-07-24T10:45:07.620Z,49.82
2018-07-24T10:48:11.850Z,49.73
2018-07-24T10:51:16.101Z,49.12
2018-07-24T10:54:20.304Z,47.99
2018-07-24T10:57:24.552Z,47.75
2018-07-24T11:00:28.785Z,47.25
2018-07-24T11:03:33.008Z,47.97
2018-07-24T11:06:37.233Z,46.05
2018-07-24T11:09:41.509Z,46.76
2018-07-24T11:12:45.741Z,46.02
2018-07-24T11:15:49.998Z,48.06
2018-07-24T11:18:54.233Z,45.86
2018-07-24T11:21:58.578Z,45.67
2018-07-24T11:25:02.825Z,45.96
2018-07-24T11:28:07.097Z,46.01
2018-07-24T11:31:11.351Z,45.98
2018-07-24T11:34:15.584Z,45.83
2018-07-24T11:37:19.852Z,46.26
2018-07-24T11:40:24.117Z,47.58
2018-07-24T11:43:28.393Z,47.82
2018-07-24T11:46:32.731Z,47.04
2018-07-24T11:49:36.917Z,46.75
2018-07-24T11:52:41.176Z,46.79
2018-07-24T11:55:45.392Z,45.46
2018-07-24T11:58:49.683Z,46.12
2018-07-24T12:01:53.957Z,46.77
2018-07-24T12:04:58.197Z,45.56
2018-07-24T12:08:02.436Z,45.17
2018-07-24T12:11:06.881Z,45.25
2018-07-24T12:14:11.276Z,45.93
2018-07-24T12:17:15.518Z,46.92
2018-07-24T12:20:19.913Z,45.62
2018-07-24T12:23:24.168Z,45.81
2018-07-24T12:26:28.424Z,45.87
2018-07-24T12:29:32.656Z,47.06
2018-07-24T12:32:36.916Z,45.99
2018-07-24T12:35:41.187Z,45.50
2018-07-24T12:38:45.456Z,46.03
2018-07-24T12:41:49.676Z,45.76
2018-07-24T12:44:53.945Z,44.89
2018-07-24T12:47:58.247Z,44.72
2018-07-24T12:51:02.562Z,44.96
2018-07-24T12:54:06.930Z,45.49
2018-07-24T12:57:11.205Z,45.45
2018-07-24T13:00:15.444Z,46.22
2018-07-24T13:03:19.688Z,45.95
2018-07-24T13:06:23.977Z,44.59
2018-07-24T13:09:28.248Z,41.84
2018-07-24T13:12:32.480Z,42.21
2018-07-24T13:15:36.726Z,42.64
2018-07-24T13:18:40.961Z,41.85
2018-07-24T13:21:45.278Z,40.69
2018-07-24T13:24:49.511Z,40.20
2018-07-24T13:27:54.057Z,40.46
2018-07-24T13:30:58.305Z,40.29
2018-07-24T13:34:02.607Z,41.28
2018-07-24T13:37:06.825Z,41.23
2018-07-24T13:40:11.091Z,40.38
2018-07-24T13:43:15.338Z,40.75
2018-07-24T13:46:19.585Z,41.53
2018-07-24T13:49:23.833Z,41.39
2018-07-24T13:52:28.099Z,40.56
2018-07-24T13:55:32.350Z,41.56
2018-07-24T13:58:36.600Z,39.79
2018-07-24T14:01:40.847Z,40.40
2018-07-24T14:04:45.101Z,40.15
2018-07-24T14:07:49.362Z,40.88
2018-07-24T14:10:53.633Z,41.43
2018-07-24T14:13:57.903Z,41.64
2018-07-24T14:17:02.166Z,42.00
2018-07-24T14:20:06.470Z,41.19
2018-07-24T14:23:10.781Z,40.85
2018-07-24T14:26:14.986Z,39.34
2018-07-24T14:29:19.259Z,39.08
2018-07-24T14:32:23.617Z,37.97
2018-07-24T14:35:27.949Z,38.58
2018-07-24T14:38:32.270Z,37.80
2018-07-24T14:41:36.525Z,38.36
2018-07-24T14:44:41.301Z,37.60
2018-07-24T14:47:45.585Z,36.99
2018-07-24T14:50:49.865Z,37.77
2018-07-24T14:53:54.137Z,38.12
2018-07-24T14:56:58.419Z,37.86
2018-07-24T15:00:02.637Z,37.68
2018-07-24T15:03:06.545Z,36.43
2018-07-24T15:06:10.780Z,37.27
2018-07-24T15:09:15.010Z,36.64
2018-07-24T15:12:19.208Z,36.65
2018-07-24T15:15:23.433Z,36.18
2018-07-24T15:18:27.656Z,36.38
2018-07-24T15:21:31.886Z,36.19
2018-07-24T15:24:36.232Z,34.20
2018-07-24T15:27:40.561Z,34.02
2018-07-24T15:30:44.776Z,34.75
2018-07-24T15:33:48.986Z,36.04
2018-07-24T15:36:53.233Z,34.27
2018-07-24T15:39:57.453Z,33.61
2018-07-24T15:43:01.679Z,33.98
2018-07-24T15:46:06.016Z,33.63
2018-07-24T15:49:10.266Z,33.90
2018-07-24T15:52:14.516Z,33.35
2018-07-24T15:55:19.761Z,33.88
2018-07-24T15:58:23.981Z,34.10
2018-07-24T16:01:28.220Z,33.60
2018-07-24T16:04:32.461Z,33.41
2018-07-24T16:07:36.692Z,32.67
2018-07-24T16:10:40.899Z,33.64
2018-07-24T16:13:45.194Z,33.66
2018-07-24T16:16:49.466Z,34.48
2018-07-24T16:19:53.802Z,35.69
2018-07-24T16:22:58.061Z,35.62
2018-07-24T16:26:02.281Z,36.15
2018-07-24T16:29:06.997Z,36.89
2018-07-24T16:32:11.257Z,37.88
2018-07-24T16:35:15.460Z,37.38
2018-07-24T16:38:19.701Z,39.07
2018-07-24T16:41:23.957Z,38.56
2018-07-24T16:44:28.176Z,38.91
2018-07-24T16:47:32.412Z,40.12
2018-07-24T16:50:36.661Z,40.61
2018-07-24T16:53:40.888Z,40.79
2018-07-24T16:56:45.181Z,39.73
2018-07-24T16:59:49.403Z,39.51
2018-07-24T17:02:53.664Z,39.63
2018-07-24T17:05:57.852Z,40.52
2018-07-24T17:09:02.061Z,40.83
2018-07-24T17:12:06.473Z,42.18
2018-07-24T17:15:10.736Z,42.31
2018-07-24T17:18:14.948Z,41.99
2018-07-24T17:21:19.168Z,43.36
2018-07-24T17:24:23.525Z,42.68
2018-07-24T17:27:27.807Z,41.27
2018-07-24T17:30:31.984Z,41.91
2018-07-24T17:33:36.221Z,43.18
2018-07-24T17:36:40.445Z,42.34
2018-07-24T17:39:44.717Z,44.01
2018-07-24T17:42:48.954Z,43.78
2018-07-24T17:45:53.162Z,42.61
2018-07-24T17:48:57.422Z,41.82
2018-07-24T17:52:02.073Z,41.47
2018-07-24T17:55:06.569Z,42.48
2018-07-24T17:58:10.781Z,43.71
2018-07-24T18:01:15.013Z,43.83
2018-07-24T18:04:19.246Z,43.25
2018-07-24T18:07:23.453Z,42.07
2018-07-24T18:10:27.673Z,43.08
2018-07-24T18:13:31.898Z,43.97
2018-07-24T18:16:36.105Z,43.73
2018-07-24T18:19:40.372Z,42.58
2018-07-24T18:22:44.588Z,42.46
2018-07-24T18:25:48.764Z,44.35
2018-07-24T18:28:53.017Z,44.11
2018-07-24T18:31:57.240Z,44.94
2018-07-24T18:35:01.236Z,45.59
2018-07-24T18:38:05.497Z,45.17
2018-07-24T18:41:09.748Z,45.98
2018-07-24T18:44:13.973Z,46.31
2018-07-24T18:47:18.294Z,45.90
2018-07-24T18:50:22.497Z,46.63
2018-07-24T18:53:26.761Z,46.19
2018-07-24T18:56:30.966Z,46.90
2018-07-24T18:59:35.184Z,46.52
2018-07-24T19:02:39.397Z,47.36
2018-07-24T19:05:43.615Z,47.98
2018-07-24T19:08:47.827Z,47.90
2018-07-24T19:11:52.050Z,48.35
2018-07-24T19:14:56.304Z,49.04
2018-07-24T19:18:00.555Z,50.46
2018-07-24T19:21:04.789Z,51.25
2018-07-24T19:24:09.140Z,51.66
2018-07-24T19:27:13.340Z,51.84
2018-07-24T19:30:17.605Z,52.96
2018-07-24T19:33:21.850Z,53.00
2018-07-24T19:36:26.060Z,54.36
2018-07-24T19:39:30.290Z,54.38
2018-07-24T19:42:34.500Z,56.12
2018-07-24T19:45:38.768Z,55.67
2018-07-24T19:48:43.021Z,56.73
2018-07-24T19:51:47.237Z,56.67
2018-07-24T19:54:51.453Z,57.49
2018-07-24T19:57:55.704Z,57.12
2018-07-24T20:00:59.917Z,58.32
2018-07-24T20:04:04.137Z,57.93
2018-07-24T20:07:08.377Z,58.50
2018-07-24T20:10:12.680Z,58.66
2018-07-24T20:13:16.619Z,59.12
2018-07-24T20:16:20.841Z,59.99
2018-07-24T20:19:25.057Z,59.72
2018-07-24T20:22:29.273Z,60.26
2018-07-24T20:25:33.496Z,60.26
2018-07-24T20:28:37.735Z,60.49
2018-07-24T20:31:41.945Z,60.72
2018-07-24T20:34:46.146Z,60.55
2018-07-24T20:37:50.528Z,61.14
2018-07-24T20:40:54.754Z,62.48
2018-07-24T20:43:58.956Z,61.92
2018-07-24T20:47:03.144Z,62.00
2018-07-24T20:50:07.393Z,62.97
2018-07-24T20:53:11.589Z,63.44
2018-07-24T20:56:15.798Z,62.87
2018-07-24T20:59:20.309Z,63.64
2018-07-24T21:02:24.538Z,63.43
2018-07-24T21:05:28.765Z,63.52
2018-07-24T21:08:33.021Z,63.05
2018-07-24T21:11:38.232Z,62.97
2018-07-24T21:14:42.607Z,63.84
2018-07-24T21:17:46.866Z,63.97
2018-07-24T21:20:51.143Z,64.35
2018-07-24T21:23:55.344Z,64.18
2018-07-24T21:26:59.552Z,65.38
2018-07-24T21:30:03.826Z,64.77
2018-07-24T21:33:08.104Z,65.89
2018-07-24T21:36:12.352Z,66.13
2018-07-24T21:39:16.303Z,66.46
2018-07-24T21:42:20.520Z,66.69
2018-07-24T21:45:24.717Z,66.66
2018-07-24T21:48:28.966Z,66.46
2018-07-24T21:51:33.191Z,66.15
2018-07-24T21:54:37.398Z,66.60
2018-07-24T21:57:41.609Z,66.85
2018-07-24T22:00:45.937Z,67.61
2018-07-24T22:03:50.053Z,67.59
2018-07-24T22:06:54.266Z,67.81
2018-07-24T22:09:58.473Z,68.65
2018-07-24T22:13:02.696Z,68.63
2018-07-24T22:16:06.898Z,68.62
2018-07-24T22:19:11.132Z,68.85
2018-07-24T22:22:15.329Z,68.71
2018-07-24T22:25:19.589Z,67.87
2018-07-24T22:28:23.780Z,69.00
2018-07-24T22:31:28.030Z,69.16
2018-07-24T22:34:32.224Z,68.32
2018-07-24T22:37:36.968Z,69.08
2018-07-24T22:40:41.168Z,69.16
2018-07-24T22:43:45.389Z,69.03
2018-07-24T22:46:49.610Z,68.36
2018-07-24T22:49:53.833Z,68.78
2018-07-24T22:52:58.057Z,69.01
2018-07-24T22:56:02.260Z,69.77
2018-07-24T22:59:06.516Z,69.44
2018-07-24T23:02:10.766Z,70.00
2018-07-24T23:05:14.968Z,69.78
2018-07-24T23:08:19.197Z,70.06
2018-07-24T23:11:23.425Z,70.51
2018-07-24T23:14:27.632Z,70.81
2018-07-24T23:17:31.852Z,70.89
2018-07-24T23:20:36.054Z,71.88
2018-07-24T23:23:40.291Z,71.15
2018-07-24T23:26:44.503Z,72.32
2018-07-24T23:29:48.725Z,71.94
2018-07-24T23:32:53.774Z,72.50
2018-07-24T23:35:57.994Z,72.74
2018-07-24T23:39:02.229Z,72.85
2018-07-24T23:42:06.470Z,72.81
2018-07-24T23:45:10.673Z,72.90
2018-07-24T23:48:14.918Z,73.11
2018-07-24T23:51:19.169Z,72.32
2018-07-24T23:54:23.373Z,73.55
2018-07-24T23:57:27.630Z,73.07
